4XSAB SBPA-SAME
Flight info
| Callsign | 4XSAB |
|---|---|
| Flight time | 2h 34m |
| Altitude | 36000 |
| Route | POXEV UM418 CBA UZ105 ALDEX UL531 KOPSI UZ105 SOLER UL531 SALBO |
| Aircraft | E195/M-VGDW/C |
Departure
| Time | 2026-04-22 05:39 |
|---|---|
| Airport | Porto Alegre-Salgado Filho International Airport (SBPA) |
Arrival
| Time | 2026-04-22 08:13 |
|---|---|
| Airport | Governor Francisco Gabrielli International Airport (SAME) |
| Time | Latitude | Longitude | Altitude | Speed | Heading |
|---|---|---|---|---|---|
| 2026-04-22 05:18 | -29.99102 | -51.17628 | 21 ft | 0 kts | 3° |
| 2026-04-22 05:24 | -29.99108 | -51.17628 | 21 ft | 3 kts | 3° |
| 2026-04-22 05:24 | -29.99128 | -51.17630 | 21 ft | 3 kts | 3° |
| 2026-04-22 05:24 | -29.99149 | -51.17629 | 21 ft | 3 kts | 348° |
| 2026-04-22 05:24 | -29.99167 | -51.17618 | 21 ft | 3 kts | 298° |
| 2026-04-22 05:25 | -29.99170 | -51.17604 | 21 ft | 0 kts | 269° |
| 2026-04-22 05:26 | 32.81149 | 35.04067 | 32 ft | 0 kts | 123° |
| 2026-04-22 05:27 | -29.99102 | -51.17628 | 719 ft | 0 kts | 3° |
| 2026-04-22 05:29 | -29.99117 | -51.17629 | 21 ft | 3 kts | 3° |
| 2026-04-22 05:29 | -29.99138 | -51.17630 | 21 ft | 3 kts | 1° |
| 2026-04-22 05:29 | -29.99158 | -51.17624 | 21 ft | 3 kts | 326° |
| 2026-04-22 05:30 | -29.99169 | -51.17605 | 21 ft | 3 kts | 279° |
| 2026-04-22 05:30 | -29.99170 | -51.17600 | 21 ft | 0 kts | 274° |
| 2026-04-22 05:35 | -29.99169 | -51.17639 | 21 ft | 6 kts | 266° |
| 2026-04-22 05:35 | -29.99196 | -51.17692 | 21 ft | 7 kts | 201° |
| 2026-04-22 05:35 | -29.99255 | -51.17703 | 21 ft | 8 kts | 205° |
| 2026-04-22 05:36 | -29.99283 | -51.17769 | 21 ft | 12 kts | 267° |
| 2026-04-22 05:36 | -29.99285 | -51.17879 | 21 ft | 15 kts | 270° |
| 2026-04-22 05:36 | -29.99288 | -51.17999 | 21 ft | 11 kts | 255° |
| 2026-04-22 05:36 | -29.99311 | -51.18076 | 21 ft | 14 kts | 250° |
| 2026-04-22 05:37 | -29.99345 | -51.18176 | 21 ft | 5 kts | 249° |
| 2026-04-22 05:37 | -29.99359 | -51.18217 | 21 ft | 8 kts | 243° |
| 2026-04-22 05:37 | -29.99393 | -51.18251 | 21 ft | 6 kts | 194° |
| 2026-04-22 05:37 | -29.99431 | -51.18234 | 21 ft | 6 kts | 124° |
| 2026-04-22 05:38 | -29.99437 | -51.18215 | 21 ft | 0 kts | 97° |
| 2026-04-22 05:38 | -29.99439 | -51.18140 | 21 ft | 35 kts | 91° |
| 2026-04-22 05:38 | -29.99451 | -51.17538 | 21 ft | 117 kts | 91° |
| 2026-04-22 05:39 | -29.99470 | -51.16347 | 431 ft | 162 kts | 91° |
| 2026-04-22 05:39 | -29.99503 | -51.14891 | 1127 ft | 209 kts | 92° |
| 2026-04-22 05:39 | -29.99556 | -51.13090 | 1533 ft | 220 kts | 92° |
| 2026-04-22 05:39 | -29.99838 | -51.11494 | 1813 ft | 195 kts | 115° |
| 2026-04-22 05:40 | -30.00753 | -51.10426 | 2177 ft | 192 kts | 149° |
| 2026-04-22 05:40 | -30.02062 | -51.10060 | 2600 ft | 197 kts | 174° |
| 2026-04-22 05:40 | -30.03444 | -51.10085 | 2982 ft | 198 kts | 185° |
| 2026-04-22 05:40 | -30.04799 | -51.10294 | 3342 ft | 197 kts | 188° |
| 2026-04-22 05:41 | -30.06163 | -51.10527 | 3617 ft | 198 kts | 186° |
| 2026-04-22 05:41 | -30.07535 | -51.10689 | 3899 ft | 203 kts | 184° |
| 2026-04-22 05:41 | -30.09024 | -51.10844 | 4180 ft | 227 kts | 184° |
| 2026-04-22 05:41 | -30.10632 | -51.11008 | 4471 ft | 235 kts | 184° |
| 2026-04-22 05:42 | -30.12305 | -51.11164 | 4760 ft | 246 kts | 182° |
| 2026-04-22 05:42 | -30.14044 | -51.11205 | 5044 ft | 251 kts | 180° |
| 2026-04-22 05:42 | -30.15780 | -51.11176 | 5319 ft | 253 kts | 179° |
| 2026-04-22 05:42 | -30.17553 | -51.11112 | 5596 ft | 255 kts | 179° |
| 2026-04-22 05:43 | -30.19342 | -51.11027 | 5818 ft | 259 kts | 179° |
| 2026-04-22 05:43 | -30.21108 | -51.11353 | 5927 ft | 259 kts | 201° |
| 2026-04-22 05:43 | -30.22577 | -51.12536 | 6006 ft | 262 kts | 225° |
| 2026-04-22 05:43 | -30.23650 | -51.14246 | 6018 ft | 263 kts | 238° |
| 2026-04-22 05:44 | -30.24456 | -51.15991 | 6922 ft | 237 kts | 244° |
| 2026-04-22 05:44 | -30.25212 | -51.17751 | 7581 ft | 258 kts | 245° |
| 2026-04-22 05:44 | -30.26061 | -51.19622 | 8044 ft | 261 kts | 243° |
| 2026-04-22 05:44 | -30.26953 | -51.21429 | 8491 ft | 257 kts | 242° |
| 2026-04-22 05:45 | -30.27889 | -51.23214 | 8944 ft | 261 kts | 240° |
| 2026-04-22 05:45 | -30.28854 | -51.24973 | 9390 ft | 263 kts | 239° |
| 2026-04-22 05:45 | -30.29861 | -51.26746 | 9841 ft | 264 kts | 239° |
| 2026-04-22 05:45 | -30.30890 | -51.28518 | 10293 ft | 266 kts | 238° |
| 2026-04-22 05:46 | -30.31940 | -51.30298 | 10747 ft | 271 kts | 238° |
| 2026-04-22 05:46 | -30.33045 | -51.32158 | 11214 ft | 290 kts | 238° |
| 2026-04-22 05:46 | -30.34232 | -51.34146 | 11683 ft | 309 kts | 237° |
| 2026-04-22 05:46 | -30.35474 | -51.36214 | 12273 ft | 314 kts | 237° |
| 2026-04-22 05:47 | -30.36733 | -51.38300 | 12876 ft | 318 kts | 237° |
| 2026-04-22 05:47 | -30.38014 | -51.40421 | 13482 ft | 323 kts | 237° |
| 2026-04-22 05:47 | -30.39296 | -51.42540 | 14077 ft | 327 kts | 237° |
| 2026-04-22 05:47 | -30.40180 | -51.44002 | 14484 ft | 330 kts | 237° |
| 2026-04-22 05:48 | -30.41935 | -51.46905 | 15282 ft | 334 kts | 237° |
| 2026-04-22 05:48 | -30.43274 | -51.49121 | 15884 ft | 337 kts | 237° |
| 2026-04-22 05:48 | -30.44185 | -51.50631 | 16291 ft | 339 kts | 237° |
| 2026-04-22 05:48 | -30.45543 | -51.52882 | 16892 ft | 342 kts | 237° |
| 2026-04-22 05:49 | -30.46916 | -51.55160 | 17496 ft | 345 kts | 237° |
| 2026-04-22 05:49 | -30.48293 | -51.57448 | 18097 ft | 348 kts | 237° |
| 2026-04-22 05:49 | -30.49666 | -51.59731 | 18691 ft | 350 kts | 237° |
| 2026-04-22 05:49 | -30.51069 | -51.62062 | 19274 ft | 353 kts | 237° |
| 2026-04-22 05:50 | -30.52480 | -51.64407 | 19844 ft | 356 kts | 237° |
| 2026-04-22 05:50 | -30.53902 | -51.66770 | 20369 ft | 359 kts | 237° |
| 2026-04-22 05:50 | -30.55337 | -51.69156 | 20874 ft | 361 kts | 237° |
| 2026-04-22 05:50 | -30.56781 | -51.71559 | 21376 ft | 364 kts | 237° |
| 2026-04-22 05:51 | -30.58230 | -51.73972 | 21861 ft | 366 kts | 237° |
| 2026-04-22 05:51 | -30.59691 | -51.76406 | 22330 ft | 368 kts | 237° |
| 2026-04-22 05:51 | -30.61156 | -51.78850 | 22784 ft | 370 kts | 237° |
| 2026-04-22 05:51 | -30.62608 | -51.81274 | 23225 ft | 371 kts | 237° |
| 2026-04-22 05:52 | -30.64080 | -51.83750 | 23655 ft | 373 kts | 239° |
| 2026-04-22 05:52 | -30.65148 | -51.86476 | 24075 ft | 370 kts | 256° |
| 2026-04-22 05:52 | -30.65516 | -51.89434 | 24491 ft | 370 kts | 267° |
| 2026-04-22 05:52 | -30.65454 | -51.92425 | 24898 ft | 371 kts | 274° |
| 2026-04-22 05:53 | -30.65145 | -51.95407 | 25291 ft | 373 kts | 278° |
| 2026-04-22 05:53 | -30.64691 | -51.98380 | 25672 ft | 374 kts | 280° |
| 2026-04-22 05:53 | -30.64153 | -52.01336 | 26048 ft | 375 kts | 282° |
| 2026-04-22 05:53 | -30.63565 | -52.04291 | 26410 ft | 376 kts | 282° |
| 2026-04-22 05:54 | -30.62949 | -52.07245 | 26755 ft | 377 kts | 283° |
| 2026-04-22 05:54 | -30.62325 | -52.10167 | 27077 ft | 378 kts | 283° |
| 2026-04-22 05:54 | -30.61682 | -52.13133 | 27383 ft | 380 kts | 283° |
| 2026-04-22 05:54 | -30.61034 | -52.16109 | 27678 ft | 381 kts | 283° |
| 2026-04-22 05:55 | -30.60378 | -52.19106 | 27956 ft | 383 kts | 283° |
| 2026-04-22 05:55 | -30.59720 | -52.22108 | 28201 ft | 385 kts | 283° |
| 2026-04-22 05:55 | -30.59058 | -52.25129 | 28431 ft | 387 kts | 283° |
| 2026-04-22 05:55 | -30.58392 | -52.28168 | 28650 ft | 390 kts | 283° |
| 2026-04-22 05:56 | -30.57723 | -52.31223 | 28854 ft | 392 kts | 283° |
| 2026-04-22 05:56 | -30.57048 | -52.34303 | 29056 ft | 394 kts | 283° |
| 2026-04-22 05:56 | -30.56369 | -52.37398 | 29249 ft | 396 kts | 283° |
| 2026-04-22 05:56 | -30.55689 | -52.40497 | 29427 ft | 398 kts | 283° |
| 2026-04-22 05:57 | -30.55003 | -52.43619 | 29604 ft | 400 kts | 283° |
| 2026-04-22 05:57 | -30.54314 | -52.46756 | 29780 ft | 402 kts | 283° |
| 2026-04-22 05:57 | -30.53621 | -52.49905 | 29956 ft | 403 kts | 283° |
| 2026-04-22 05:57 | -30.52928 | -52.53053 | 30131 ft | 404 kts | 283° |
| 2026-04-22 05:58 | -30.52230 | -52.56220 | 30307 ft | 405 kts | 283° |
| 2026-04-22 05:58 | -30.51540 | -52.59350 | 30480 ft | 406 kts | 283° |
| 2026-04-22 05:58 | -30.50836 | -52.62538 | 30656 ft | 407 kts | 283° |
| 2026-04-22 05:58 | -30.50132 | -52.65717 | 30831 ft | 407 kts | 283° |
| 2026-04-22 05:59 | -30.49429 | -52.68893 | 31006 ft | 408 kts | 283° |
| 2026-04-22 05:59 | -30.48722 | -52.72085 | 31181 ft | 408 kts | 283° |
| 2026-04-22 05:59 | -30.48014 | -52.75275 | 31357 ft | 408 kts | 283° |
| 2026-04-22 05:59 | -30.47306 | -52.78460 | 31531 ft | 408 kts | 283° |
| 2026-04-22 06:00 | -30.46597 | -52.81646 | 31706 ft | 408 kts | 283° |
| 2026-04-22 06:00 | -30.45887 | -52.84837 | 31881 ft | 408 kts | 283° |
| 2026-04-22 06:00 | -30.45176 | -52.88023 | 32056 ft | 408 kts | 283° |
| 2026-04-22 06:00 | -30.44465 | -52.91207 | 32231 ft | 408 kts | 283° |
| 2026-04-22 06:01 | -30.43752 | -52.94399 | 32406 ft | 408 kts | 283° |
| 2026-04-22 06:01 | -30.43042 | -52.97569 | 32581 ft | 408 kts | 283° |
| 2026-04-22 06:01 | -30.42328 | -53.00758 | 32756 ft | 407 kts | 284° |
| 2026-04-22 06:01 | -30.41615 | -53.03935 | 32931 ft | 407 kts | 284° |
| 2026-04-22 06:02 | -30.40903 | -53.07102 | 33105 ft | 407 kts | 284° |
| 2026-04-22 06:02 | -30.40198 | -53.10239 | 33278 ft | 406 kts | 284° |
| 2026-04-22 06:02 | -30.39484 | -53.13407 | 33453 ft | 406 kts | 284° |
| 2026-04-22 06:02 | -30.38772 | -53.16567 | 33628 ft | 405 kts | 284° |
| 2026-04-22 06:03 | -30.38059 | -53.19723 | 33803 ft | 405 kts | 284° |
| 2026-04-22 06:03 | -30.37348 | -53.22870 | 33977 ft | 404 kts | 284° |
| 2026-04-22 06:03 | -30.36636 | -53.26018 | 34152 ft | 403 kts | 284° |
| 2026-04-22 06:03 | -30.35925 | -53.29156 | 34326 ft | 403 kts | 284° |
| 2026-04-22 06:04 | -30.35213 | -53.32294 | 34501 ft | 402 kts | 284° |
| 2026-04-22 06:04 | -30.34501 | -53.35430 | 34676 ft | 401 kts | 284° |
| 2026-04-22 06:04 | -30.33797 | -53.38527 | 34849 ft | 401 kts | 284° |
| 2026-04-22 06:04 | -30.33088 | -53.41643 | 35023 ft | 400 kts | 284° |
| 2026-04-22 06:05 | -30.32563 | -53.44795 | 35196 ft | 398 kts | 275° |
| 2026-04-22 06:05 | -30.32470 | -53.47990 | 35372 ft | 397 kts | 268° |
| 2026-04-22 06:05 | -30.32677 | -53.51169 | 35547 ft | 397 kts | 264° |
| 2026-04-22 06:05 | -30.33077 | -53.54331 | 35723 ft | 396 kts | 261° |
| 2026-04-22 06:06 | -30.33593 | -53.57466 | 35873 ft | 396 kts | 259° |
| 2026-04-22 06:06 | -30.34166 | -53.60581 | 35966 ft | 397 kts | 258° |
| 2026-04-22 06:06 | -30.35247 | -53.66898 | 36002 ft | 403 kts | 261° |
| 2026-04-22 06:07 | -30.36175 | -53.73358 | 36001 ft | 409 kts | 261° |
| 2026-04-22 06:07 | -30.37054 | -53.79863 | 36001 ft | 414 kts | 262° |
| 2026-04-22 06:08 | -30.37937 | -53.86507 | 36001 ft | 418 kts | 262° |
| 2026-04-22 06:08 | -30.38822 | -53.93187 | 36001 ft | 422 kts | 262° |
| 2026-04-22 06:09 | -30.39718 | -53.99941 | 36001 ft | 425 kts | 262° |
| 2026-04-22 06:09 | -30.40618 | -54.06723 | 36000 ft | 428 kts | 262° |
| 2026-04-22 06:10 | -30.41524 | -54.13559 | 36000 ft | 429 kts | 262° |
| 2026-04-22 06:10 | -30.42429 | -54.20404 | 36000 ft | 430 kts | 262° |
| 2026-04-22 06:11 | -30.43328 | -54.27222 | 36000 ft | 430 kts | 262° |
| 2026-04-22 06:11 | -30.44231 | -54.34098 | 36000 ft | 430 kts | 262° |
| 2026-04-22 06:12 | -30.45128 | -54.40951 | 36000 ft | 430 kts | 262° |
| 2026-04-22 06:12 | -30.46023 | -54.47815 | 36000 ft | 430 kts | 262° |
| 2026-04-22 06:13 | -30.46908 | -54.54634 | 36000 ft | 430 kts | 262° |
| 2026-04-22 06:13 | -30.47795 | -54.61494 | 36000 ft | 430 kts | 262° |
| 2026-04-22 06:14 | -30.48677 | -54.68349 | 36000 ft | 430 kts | 262° |
| 2026-04-22 06:14 | -30.49556 | -54.75204 | 36000 ft | 430 kts | 262° |
| 2026-04-22 06:15 | -30.50431 | -54.82071 | 36000 ft | 430 kts | 262° |
| 2026-04-22 06:15 | -30.51304 | -54.88947 | 36000 ft | 430 kts | 262° |
| 2026-04-22 06:16 | -30.52164 | -54.95763 | 36000 ft | 430 kts | 262° |
| 2026-04-22 06:16 | -30.53029 | -55.02644 | 36000 ft | 430 kts | 262° |
| 2026-04-22 06:17 | -30.53887 | -55.09508 | 36000 ft | 430 kts | 262° |
| 2026-04-22 06:17 | -30.54738 | -55.16380 | 36000 ft | 430 kts | 262° |
| 2026-04-22 06:18 | -30.55553 | -55.23215 | 36000 ft | 430 kts | 263° |
| 2026-04-22 06:18 | -30.56356 | -55.30116 | 36000 ft | 430 kts | 263° |
| 2026-04-22 06:19 | -30.57141 | -55.36946 | 36000 ft | 430 kts | 263° |
| 2026-04-22 06:19 | -30.57928 | -55.43837 | 36000 ft | 430 kts | 263° |
| 2026-04-22 06:20 | -30.58711 | -55.50727 | 36000 ft | 430 kts | 263° |
| 2026-04-22 06:20 | -30.59491 | -55.57614 | 36000 ft | 430 kts | 263° |
| 2026-04-22 06:21 | -30.60261 | -55.64451 | 36000 ft | 430 kts | 263° |
| 2026-04-22 06:21 | -30.61035 | -55.71347 | 36000 ft | 430 kts | 263° |
| 2026-04-22 06:22 | -30.61805 | -55.78244 | 36000 ft | 430 kts | 263° |
| 2026-04-22 06:22 | -30.62570 | -55.85128 | 36000 ft | 430 kts | 263° |
| 2026-04-22 06:23 | -30.63327 | -55.91974 | 36000 ft | 430 kts | 263° |
| 2026-04-22 06:23 | -30.64086 | -55.98873 | 36000 ft | 430 kts | 263° |
| 2026-04-22 06:24 | -30.65216 | -56.09218 | 36000 ft | 430 kts | 263° |
| 2026-04-22 06:25 | -30.65961 | -56.16063 | 36000 ft | 430 kts | 263° |
| 2026-04-22 06:25 | -30.66727 | -56.22958 | 36000 ft | 430 kts | 263° |
| 2026-04-22 06:26 | -30.67498 | -56.29850 | 36000 ft | 430 kts | 263° |
| 2026-04-22 06:26 | -30.68267 | -56.36751 | 36000 ft | 430 kts | 263° |
| 2026-04-22 06:27 | -30.69028 | -56.43611 | 36000 ft | 430 kts | 263° |
| 2026-04-22 06:27 | -30.69787 | -56.50509 | 36000 ft | 430 kts | 263° |
| 2026-04-22 06:28 | -30.70541 | -56.57413 | 36000 ft | 430 kts | 263° |
| 2026-04-22 06:28 | -30.71295 | -56.64268 | 36000 ft | 430 kts | 263° |
| 2026-04-22 06:29 | -30.72058 | -56.71164 | 36000 ft | 430 kts | 263° |
| 2026-04-22 06:29 | -30.72811 | -56.78053 | 36000 ft | 430 kts | 263° |
| 2026-04-22 06:30 | -30.73558 | -56.84953 | 36000 ft | 430 kts | 263° |
| 2026-04-22 06:30 | -30.74299 | -56.91860 | 36000 ft | 430 kts | 263° |
| 2026-04-22 06:31 | -30.75035 | -56.98756 | 36000 ft | 430 kts | 263° |
| 2026-04-22 06:31 | -30.75767 | -57.05659 | 36000 ft | 430 kts | 263° |
| 2026-04-22 06:32 | -30.76490 | -57.12512 | 36000 ft | 430 kts | 263° |
| 2026-04-22 06:32 | -30.77214 | -57.19414 | 36000 ft | 430 kts | 263° |
| 2026-04-22 06:33 | -30.77934 | -57.26315 | 36000 ft | 430 kts | 263° |
| 2026-04-22 06:33 | -30.78651 | -57.33227 | 36000 ft | 430 kts | 263° |
| 2026-04-22 06:34 | -30.79363 | -57.40138 | 36000 ft | 430 kts | 263° |
| 2026-04-22 06:34 | -30.80068 | -57.47003 | 36000 ft | 430 kts | 263° |
| 2026-04-22 06:35 | -30.80774 | -57.53907 | 36000 ft | 430 kts | 263° |
| 2026-04-22 06:35 | -30.81477 | -57.60816 | 36000 ft | 430 kts | 263° |
| 2026-04-22 06:36 | -30.82174 | -57.67723 | 36000 ft | 430 kts | 264° |
| 2026-04-22 06:36 | -30.82868 | -57.74637 | 36000 ft | 430 kts | 264° |
| 2026-04-22 06:37 | -30.83446 | -57.80394 | 36000 ft | 430 kts | 263° |
| 2026-04-22 06:37 | -30.84278 | -57.88418 | 36000 ft | 430 kts | 263° |
| 2026-04-22 06:38 | -30.84884 | -57.94208 | 36000 ft | 430 kts | 263° |
| 2026-04-22 06:38 | -30.85602 | -58.01070 | 36000 ft | 430 kts | 263° |
| 2026-04-22 06:39 | -30.86321 | -58.07990 | 36000 ft | 430 kts | 263° |
| 2026-04-22 06:39 | -30.87034 | -58.14899 | 36000 ft | 430 kts | 263° |
| 2026-04-22 06:40 | -30.87743 | -58.21810 | 36000 ft | 430 kts | 263° |
| 2026-04-22 06:40 | -30.88442 | -58.28687 | 36000 ft | 430 kts | 263° |
| 2026-04-22 06:41 | -30.89141 | -58.35609 | 36000 ft | 430 kts | 264° |
| 2026-04-22 06:41 | -30.89837 | -58.42534 | 36000 ft | 430 kts | 264° |
| 2026-04-22 06:42 | -30.90526 | -58.49417 | 36000 ft | 430 kts | 264° |
| 2026-04-22 06:42 | -30.91213 | -58.56330 | 36000 ft | 430 kts | 264° |
| 2026-04-22 06:43 | -30.91897 | -58.63259 | 36000 ft | 430 kts | 264° |
| 2026-04-22 06:43 | -30.92577 | -58.70189 | 36000 ft | 430 kts | 264° |
| 2026-04-22 06:44 | -30.93246 | -58.77106 | 36000 ft | 430 kts | 264° |
| 2026-04-22 06:44 | -30.93875 | -58.83988 | 36000 ft | 430 kts | 264° |
| 2026-04-22 06:45 | -30.94485 | -58.90924 | 36000 ft | 430 kts | 264° |
| 2026-04-22 06:45 | -30.95085 | -58.97854 | 36000 ft | 430 kts | 264° |
| 2026-04-22 06:46 | -30.95679 | -59.04783 | 36000 ft | 430 kts | 264° |
| 2026-04-22 06:46 | -30.96270 | -59.11722 | 36000 ft | 430 kts | 264° |
| 2026-04-22 06:47 | -30.96854 | -59.18614 | 36000 ft | 430 kts | 264° |
| 2026-04-22 06:47 | -30.97438 | -59.25546 | 36000 ft | 430 kts | 264° |
| 2026-04-22 06:48 | -30.98018 | -59.32473 | 36000 ft | 430 kts | 265° |
| 2026-04-22 06:48 | -30.98595 | -59.39405 | 36000 ft | 430 kts | 265° |
| 2026-04-22 06:49 | -30.99169 | -59.46348 | 36000 ft | 430 kts | 265° |
| 2026-04-22 06:49 | -30.99657 | -59.52280 | 36000 ft | 430 kts | 265° |
| 2026-04-22 06:50 | -31.00224 | -59.59219 | 36000 ft | 430 kts | 265° |
| 2026-04-22 06:50 | -31.00786 | -59.66149 | 36000 ft | 430 kts | 265° |
| 2026-04-22 06:51 | -31.01346 | -59.73092 | 36000 ft | 430 kts | 265° |
| 2026-04-22 06:51 | -31.01901 | -59.80032 | 36000 ft | 430 kts | 265° |
| 2026-04-22 06:52 | -31.02451 | -59.86967 | 36000 ft | 430 kts | 265° |
| 2026-04-22 06:52 | -31.03023 | -59.93866 | 36000 ft | 430 kts | 264° |
| 2026-04-22 06:53 | -31.03633 | -60.00808 | 36000 ft | 430 kts | 264° |
| 2026-04-22 06:53 | -31.04251 | -60.07743 | 36000 ft | 430 kts | 264° |
| 2026-04-22 06:54 | -31.04868 | -60.14690 | 36000 ft | 430 kts | 264° |
| 2026-04-22 06:54 | -31.05477 | -60.21586 | 36000 ft | 430 kts | 264° |
| 2026-04-22 06:55 | -31.06084 | -60.28520 | 36000 ft | 430 kts | 264° |
| 2026-04-22 06:55 | -31.06687 | -60.35469 | 36000 ft | 430 kts | 264° |
| 2026-04-22 06:56 | -31.07283 | -60.42400 | 36000 ft | 430 kts | 264° |
| 2026-04-22 06:56 | -31.07877 | -60.49342 | 36000 ft | 430 kts | 264° |
| 2026-04-22 06:57 | -31.08466 | -60.56283 | 36000 ft | 430 kts | 264° |
| 2026-04-22 06:57 | -31.09051 | -60.63228 | 36000 ft | 430 kts | 264° |
| 2026-04-22 06:58 | -31.09632 | -60.70168 | 36000 ft | 430 kts | 265° |
| 2026-04-22 06:58 | -31.10206 | -60.77072 | 36000 ft | 430 kts | 265° |
| 2026-04-22 06:59 | -31.10779 | -60.84013 | 36000 ft | 430 kts | 265° |
| 2026-04-22 06:59 | -31.11349 | -60.90958 | 36000 ft | 430 kts | 265° |
| 2026-04-22 07:00 | -31.11916 | -60.97915 | 36000 ft | 430 kts | 265° |
| 2026-04-22 07:00 | -31.12474 | -61.04822 | 36000 ft | 430 kts | 265° |
| 2026-04-22 07:01 | -31.13032 | -61.11773 | 36000 ft | 430 kts | 265° |
| 2026-04-22 07:01 | -31.13586 | -61.18729 | 36000 ft | 430 kts | 265° |
| 2026-04-22 07:02 | -31.14116 | -61.25681 | 36000 ft | 430 kts | 265° |
| 2026-04-22 07:02 | -31.14618 | -61.32592 | 36000 ft | 430 kts | 265° |
| 2026-04-22 07:03 | -31.15116 | -61.39588 | 36000 ft | 430 kts | 265° |
| 2026-04-22 07:03 | -31.15601 | -61.46501 | 36000 ft | 430 kts | 265° |
| 2026-04-22 07:04 | -31.16086 | -61.53468 | 36000 ft | 430 kts | 265° |
| 2026-04-22 07:04 | -31.16567 | -61.60434 | 36000 ft | 430 kts | 265° |
| 2026-04-22 07:05 | -31.17045 | -61.67397 | 36000 ft | 430 kts | 265° |
| 2026-04-22 07:05 | -31.17518 | -61.74356 | 36000 ft | 430 kts | 266° |
| 2026-04-22 07:06 | -31.17688 | -61.76931 | 36000 ft | 430 kts | 266° |
| 2026-04-22 07:06 | -31.18061 | -61.82653 | 36000 ft | 430 kts | 266° |
| 2026-04-22 07:07 | -31.18346 | -61.87123 | 36000 ft | 430 kts | 266° |
| 2026-04-22 07:07 | -31.18502 | -61.89290 | 35999 ft | 430 kts | 264° |
| 2026-04-22 07:08 | -31.19127 | -61.96240 | 36001 ft | 430 kts | 265° |
| 2026-04-22 07:08 | -31.19535 | -62.03204 | 36000 ft | 430 kts | 267° |
| 2026-04-22 07:09 | -31.19904 | -62.10180 | 36000 ft | 430 kts | 266° |
| 2026-04-22 07:09 | -31.20323 | -62.17142 | 36000 ft | 430 kts | 266° |
| 2026-04-22 07:10 | -31.20757 | -62.24062 | 36000 ft | 430 kts | 266° |
| 2026-04-22 07:10 | -31.21196 | -62.31041 | 36000 ft | 430 kts | 266° |
| 2026-04-22 07:11 | -31.21631 | -62.38014 | 36000 ft | 430 kts | 266° |
| 2026-04-22 07:11 | -31.22058 | -62.44937 | 36000 ft | 430 kts | 266° |
| 2026-04-22 07:12 | -31.22196 | -62.47193 | 36000 ft | 430 kts | 266° |
| 2026-04-22 07:13 | -31.22369 | -62.50045 | 36088 ft | 427 kts | 266° |
| 2026-04-22 07:13 | -31.22783 | -62.56920 | 36118 ft | 425 kts | 266° |
| 2026-04-22 07:14 | -31.23183 | -62.63806 | 36118 ft | 423 kts | 266° |
| 2026-04-22 07:14 | -31.23543 | -62.70664 | 36118 ft | 422 kts | 266° |
| 2026-04-22 07:15 | -31.23882 | -62.77506 | 36118 ft | 420 kts | 267° |
| 2026-04-22 07:15 | -31.24209 | -62.84276 | 36118 ft | 419 kts | 267° |
| 2026-04-22 07:16 | -31.24533 | -62.91082 | 36118 ft | 419 kts | 267° |
| 2026-04-22 07:16 | -31.24855 | -62.97886 | 36118 ft | 419 kts | 267° |
| 2026-04-22 07:17 | -31.25173 | -63.04690 | 36118 ft | 419 kts | 267° |
| 2026-04-22 07:17 | -31.25490 | -63.11494 | 36118 ft | 419 kts | 267° |
| 2026-04-22 07:18 | -31.25847 | -63.18295 | 36118 ft | 419 kts | 266° |
| 2026-04-22 07:18 | -31.26230 | -63.25062 | 36118 ft | 419 kts | 266° |
| 2026-04-22 07:19 | -31.26621 | -63.31877 | 36118 ft | 419 kts | 266° |
| 2026-04-22 07:19 | -31.27009 | -63.38692 | 36118 ft | 419 kts | 266° |
| 2026-04-22 07:20 | -31.27391 | -63.45459 | 36118 ft | 419 kts | 266° |
| 2026-04-22 07:20 | -31.27770 | -63.52279 | 36118 ft | 419 kts | 266° |
| 2026-04-22 07:21 | -31.28144 | -63.59088 | 36118 ft | 419 kts | 266° |
| 2026-04-22 07:21 | -31.28513 | -63.65898 | 36118 ft | 419 kts | 266° |
| 2026-04-22 07:22 | -31.28876 | -63.72665 | 36118 ft | 419 kts | 266° |
| 2026-04-22 07:22 | -31.29237 | -63.79477 | 36118 ft | 419 kts | 266° |
| 2026-04-22 07:23 | -31.29594 | -63.86281 | 36118 ft | 419 kts | 266° |
| 2026-04-22 07:23 | -31.29948 | -63.93101 | 36118 ft | 419 kts | 266° |
| 2026-04-22 07:24 | -31.30298 | -63.99913 | 36118 ft | 419 kts | 266° |
| 2026-04-22 07:24 | -31.30642 | -64.06683 | 36118 ft | 419 kts | 266° |
| 2026-04-22 07:25 | -31.30984 | -64.13500 | 36118 ft | 419 kts | 267° |
| 2026-04-22 07:25 | -31.31597 | -64.20289 | 36118 ft | 420 kts | 258° |
| 2026-04-22 07:26 | -31.33314 | -64.26817 | 36119 ft | 421 kts | 251° |
| 2026-04-22 07:26 | -31.35480 | -64.33144 | 36118 ft | 421 kts | 248° |
| 2026-04-22 07:27 | -31.37397 | -64.38395 | 36118 ft | 421 kts | 248° |
| 2026-04-22 07:27 | -31.39723 | -64.44709 | 36118 ft | 421 kts | 248° |
| 2026-04-22 07:28 | -31.43168 | -64.54176 | 36118 ft | 421 kts | 248° |
| 2026-04-22 07:28 | -31.45439 | -64.60515 | 36118 ft | 421 kts | 249° |
| 2026-04-22 07:29 | -31.47686 | -64.66849 | 36118 ft | 421 kts | 249° |
| 2026-04-22 07:29 | -31.49909 | -64.73163 | 36118 ft | 421 kts | 249° |
| 2026-04-22 07:30 | -31.52135 | -64.79519 | 36118 ft | 421 kts | 249° |
| 2026-04-22 07:30 | -31.54341 | -64.85843 | 36118 ft | 421 kts | 249° |
| 2026-04-22 07:31 | -31.56556 | -64.92213 | 36118 ft | 421 kts | 249° |
| 2026-04-22 07:31 | -31.58764 | -64.98576 | 36118 ft | 421 kts | 249° |
| 2026-04-22 07:32 | -31.60958 | -65.04917 | 36118 ft | 421 kts | 249° |
| 2026-04-22 07:32 | -31.63158 | -65.11287 | 36118 ft | 421 kts | 249° |
| 2026-04-22 07:33 | -31.65353 | -65.17662 | 36118 ft | 421 kts | 249° |
| 2026-04-22 07:33 | -31.67551 | -65.24044 | 36118 ft | 421 kts | 249° |
| 2026-04-22 07:34 | -31.69747 | -65.30421 | 36118 ft | 421 kts | 249° |
| 2026-04-22 07:34 | -31.71927 | -65.36765 | 36118 ft | 421 kts | 249° |
| 2026-04-22 07:35 | -31.74115 | -65.43146 | 36118 ft | 421 kts | 249° |
| 2026-04-22 07:35 | -31.76302 | -65.49539 | 36118 ft | 421 kts | 249° |
| 2026-04-22 07:36 | -31.78473 | -65.55901 | 36118 ft | 421 kts | 249° |
| 2026-04-22 07:36 | -31.80651 | -65.62296 | 36118 ft | 421 kts | 249° |
| 2026-04-22 07:37 | -31.82826 | -65.68696 | 36118 ft | 421 kts | 249° |
| 2026-04-22 07:37 | -31.84997 | -65.75098 | 36118 ft | 421 kts | 249° |
| 2026-04-22 07:38 | -31.87152 | -65.81466 | 36118 ft | 421 kts | 249° |
| 2026-04-22 07:38 | -31.89315 | -65.87873 | 36118 ft | 421 kts | 249° |
| 2026-04-22 07:39 | -31.91475 | -65.94287 | 36118 ft | 421 kts | 249° |
| 2026-04-22 07:39 | -31.93631 | -66.00701 | 36118 ft | 421 kts | 250° |
| 2026-04-22 07:40 | -31.95770 | -66.07073 | 36118 ft | 421 kts | 250° |
| 2026-04-22 07:40 | -31.97921 | -66.13495 | 36118 ft | 421 kts | 250° |
| 2026-04-22 07:41 | -32.00071 | -66.19929 | 36118 ft | 421 kts | 250° |
| 2026-04-22 07:41 | -32.02201 | -66.26321 | 36118 ft | 421 kts | 250° |
| 2026-04-22 07:42 | -32.04341 | -66.32756 | 36118 ft | 421 kts | 250° |
| 2026-04-22 07:42 | -32.06475 | -66.39191 | 36118 ft | 421 kts | 250° |
| 2026-04-22 07:43 | -32.08597 | -66.45605 | 36118 ft | 421 kts | 250° |
| 2026-04-22 07:43 | -32.10710 | -66.52005 | 36118 ft | 421 kts | 250° |
| 2026-04-22 07:44 | -32.12841 | -66.58450 | 36118 ft | 421 kts | 250° |
| 2026-04-22 07:44 | -32.14973 | -66.64905 | 36118 ft | 421 kts | 250° |
| 2026-04-22 07:45 | -32.17084 | -66.71311 | 36118 ft | 421 kts | 250° |
| 2026-04-22 07:45 | -32.19206 | -66.77763 | 36118 ft | 421 kts | 250° |
| 2026-04-22 07:46 | -32.21310 | -66.84178 | 36118 ft | 421 kts | 250° |
| 2026-04-22 07:46 | -32.23420 | -66.90625 | 36118 ft | 421 kts | 250° |
| 2026-04-22 07:47 | -32.25529 | -66.97085 | 36118 ft | 421 kts | 250° |
| 2026-04-22 07:47 | -32.27607 | -67.03458 | 36115 ft | 403 kts | 250° |
| 2026-04-22 07:48 | -32.29572 | -67.09491 | 36115 ft | 389 kts | 250° |
| 2026-04-22 07:48 | -32.30550 | -67.12505 | 35641 ft | 395 kts | 250° |
| 2026-04-22 07:48 | -32.31534 | -67.15541 | 35052 ft | 393 kts | 250° |
| 2026-04-22 07:49 | -32.32511 | -67.18557 | 34451 ft | 390 kts | 250° |
| 2026-04-22 07:49 | -32.33477 | -67.21544 | 33850 ft | 387 kts | 250° |
| 2026-04-22 07:49 | -32.34434 | -67.24504 | 33249 ft | 384 kts | 250° |
| 2026-04-22 07:49 | -32.35375 | -67.27415 | 32655 ft | 382 kts | 250° |
| 2026-04-22 07:50 | -32.36324 | -67.30357 | 32054 ft | 381 kts | 250° |
| 2026-04-22 07:50 | -32.37270 | -67.33293 | 31452 ft | 381 kts | 250° |
| 2026-04-22 07:50 | -32.38215 | -67.36226 | 30852 ft | 381 kts | 250° |
| 2026-04-22 07:50 | -32.39161 | -67.39167 | 30250 ft | 381 kts | 250° |
| 2026-04-22 07:51 | -32.40094 | -67.42069 | 29658 ft | 382 kts | 250° |
| 2026-04-22 07:51 | -32.41041 | -67.45020 | 29056 ft | 383 kts | 250° |
| 2026-04-22 07:51 | -32.41992 | -67.47983 | 28454 ft | 384 kts | 250° |
| 2026-04-22 07:51 | -32.42940 | -67.50939 | 27855 ft | 385 kts | 250° |
| 2026-04-22 07:52 | -32.43893 | -67.53914 | 27253 ft | 386 kts | 250° |
| 2026-04-22 07:52 | -32.44840 | -67.56873 | 26652 ft | 382 kts | 250° |
| 2026-04-22 07:52 | -32.45776 | -67.59798 | 26050 ft | 377 kts | 250° |
| 2026-04-22 07:52 | -32.46686 | -67.62646 | 25456 ft | 371 kts | 250° |
| 2026-04-22 07:53 | -32.47595 | -67.65490 | 24854 ft | 366 kts | 250° |
| 2026-04-22 07:53 | -32.48490 | -67.68298 | 24252 ft | 362 kts | 250° |
| 2026-04-22 07:53 | -32.49371 | -67.71067 | 23652 ft | 357 kts | 251° |
| 2026-04-22 07:53 | -32.50242 | -67.73805 | 23067 ft | 353 kts | 251° |
| 2026-04-22 07:54 | -32.51183 | -67.76485 | 22495 ft | 350 kts | 245° |
| 2026-04-22 07:54 | -32.52390 | -67.78973 | 21943 ft | 347 kts | 239° |
| 2026-04-22 07:54 | -32.53730 | -67.81293 | 21400 ft | 345 kts | 236° |
| 2026-04-22 07:54 | -32.55018 | -67.83340 | 20904 ft | 342 kts | 235° |
| 2026-04-22 07:55 | -32.56472 | -67.85554 | 20371 ft | 339 kts | 234° |
| 2026-04-22 07:55 | -32.57928 | -67.87733 | 19886 ft | 335 kts | 234° |
| 2026-04-22 07:55 | -32.59372 | -67.89888 | 19409 ft | 332 kts | 234° |
| 2026-04-22 07:55 | -32.60801 | -67.92029 | 18935 ft | 330 kts | 234° |
| 2026-04-22 07:56 | -32.62211 | -67.94159 | 18480 ft | 327 kts | 234° |
| 2026-04-22 07:56 | -32.63605 | -67.96281 | 18031 ft | 324 kts | 234° |
| 2026-04-22 07:56 | -32.64984 | -67.98396 | 17601 ft | 322 kts | 234° |
| 2026-04-22 07:56 | -32.66345 | -68.00495 | 17175 ft | 320 kts | 235° |
| 2026-04-22 07:57 | -32.67693 | -68.02585 | 16749 ft | 318 kts | 235° |
| 2026-04-22 07:57 | -32.69013 | -68.04640 | 16329 ft | 316 kts | 235° |
| 2026-04-22 07:57 | -32.70338 | -68.06708 | 15904 ft | 314 kts | 235° |
| 2026-04-22 07:57 | -32.71656 | -68.08771 | 15477 ft | 312 kts | 235° |
| 2026-04-22 07:58 | -32.72966 | -68.10822 | 15051 ft | 310 kts | 235° |
| 2026-04-22 07:58 | -32.74263 | -68.12858 | 14625 ft | 308 kts | 235° |
| 2026-04-22 07:58 | -32.75552 | -68.14882 | 14199 ft | 306 kts | 235° |
| 2026-04-22 07:58 | -32.76835 | -68.16894 | 13773 ft | 304 kts | 235° |
| 2026-04-22 07:59 | -32.78110 | -68.18890 | 13347 ft | 302 kts | 235° |
| 2026-04-22 07:59 | -32.79360 | -68.20849 | 12927 ft | 300 kts | 235° |
| 2026-04-22 07:59 | -32.80619 | -68.22823 | 12501 ft | 298 kts | 235° |
| 2026-04-22 07:59 | -32.81868 | -68.24783 | 12075 ft | 296 kts | 235° |
| 2026-04-22 08:00 | -32.83107 | -68.26727 | 11648 ft | 291 kts | 235° |
| 2026-04-22 08:00 | -32.84302 | -68.28603 | 11219 ft | 278 kts | 235° |
| 2026-04-22 08:00 | -32.85450 | -68.30403 | 10790 ft | 268 kts | 235° |
| 2026-04-22 08:00 | -32.86558 | -68.32143 | 10362 ft | 261 kts | 236° |
| 2026-04-22 08:01 | -32.87641 | -68.33850 | 9935 ft | 256 kts | 236° |
| 2026-04-22 08:01 | -32.88708 | -68.35532 | 9541 ft | 252 kts | 236° |
| 2026-04-22 08:01 | -32.89753 | -68.37181 | 9217 ft | 248 kts | 236° |
| 2026-04-22 08:01 | -32.90791 | -68.38821 | 8891 ft | 247 kts | 236° |
| 2026-04-22 08:02 | -32.91823 | -68.40453 | 8565 ft | 246 kts | 236° |
| 2026-04-22 08:02 | -32.92850 | -68.42075 | 8240 ft | 245 kts | 236° |
| 2026-04-22 08:02 | -32.93874 | -68.43694 | 7914 ft | 244 kts | 236° |
| 2026-04-22 08:02 | -32.94874 | -68.45273 | 7753 ft | 239 kts | 236° |
| 2026-04-22 08:03 | -32.95871 | -68.46850 | 7671 ft | 237 kts | 236° |
| 2026-04-22 08:03 | -32.96861 | -68.48414 | 7647 ft | 233 kts | 236° |
| 2026-04-22 08:03 | -32.97828 | -68.49943 | 7640 ft | 228 kts | 236° |
| 2026-04-22 08:03 | -32.98774 | -68.51439 | 7639 ft | 223 kts | 236° |
| 2026-04-22 08:04 | -32.99674 | -68.52860 | 7661 ft | 205 kts | 236° |
| 2026-04-22 08:04 | -33.00503 | -68.54169 | 7633 ft | 191 kts | 236° |
| 2026-04-22 08:04 | -33.01292 | -68.55419 | 7636 ft | 186 kts | 236° |
| 2026-04-22 08:04 | -33.02053 | -68.56629 | 7637 ft | 183 kts | 237° |
| 2026-04-22 08:05 | -33.02821 | -68.57854 | 7643 ft | 185 kts | 237° |
| 2026-04-22 08:05 | -33.03601 | -68.59096 | 7644 ft | 188 kts | 236° |
| 2026-04-22 08:05 | -33.04393 | -68.60357 | 7542 ft | 195 kts | 236° |
| 2026-04-22 08:05 | -33.05102 | -68.61787 | 7287 ft | 201 kts | 251° |
| 2026-04-22 08:06 | -33.05342 | -68.63381 | 7056 ft | 194 kts | 265° |
| 2026-04-22 08:06 | -33.05370 | -68.64975 | 6806 ft | 191 kts | 270° |
| 2026-04-22 08:06 | -33.05336 | -68.66525 | 6555 ft | 188 kts | 271° |
| 2026-04-22 08:06 | -33.05292 | -68.68075 | 6271 ft | 186 kts | 271° |
| 2026-04-22 08:07 | -33.05254 | -68.69616 | 5944 ft | 186 kts | 270° |
| 2026-04-22 08:07 | -33.05225 | -68.71165 | 5666 ft | 184 kts | 270° |
| 2026-04-22 08:07 | -33.05204 | -68.72645 | 5542 ft | 177 kts | 270° |
| 2026-04-22 08:07 | -33.05186 | -68.74101 | 5520 ft | 173 kts | 270° |
| 2026-04-22 08:08 | -33.05170 | -68.75534 | 5507 ft | 174 kts | 270° |
| 2026-04-22 08:08 | -33.04965 | -68.76965 | 5465 ft | 180 kts | 291° |
| 2026-04-22 08:08 | -33.04148 | -68.78080 | 5513 ft | 182 kts | 317° |
| 2026-04-22 08:08 | -33.02932 | -68.78571 | 5514 ft | 188 kts | 349° |
| 2026-04-22 08:09 | -33.01611 | -68.78561 | 5515 ft | 192 kts | 359° |
| 2026-04-22 08:09 | -33.00273 | -68.78497 | 5495 ft | 193 kts | 356° |
| 2026-04-22 08:09 | -32.98924 | -68.78785 | 5161 ft | 204 kts | 342° |
| 2026-04-22 08:09 | -32.97628 | -68.79239 | 4842 ft | 182 kts | 341° |
| 2026-04-22 08:10 | -32.96479 | -68.79536 | 4595 ft | 160 kts | 347° |
| 2026-04-22 08:10 | -32.95410 | -68.79642 | 4345 ft | 148 kts | 354° |
| 2026-04-22 08:10 | -32.94412 | -68.79626 | 4095 ft | 139 kts | 359° |
| 2026-04-22 08:10 | -32.93478 | -68.79560 | 3935 ft | 128 kts | 1° |
| 2026-04-22 08:11 | -32.93343 | -68.79549 | 3912 ft | 126 kts | 1° |
| 2026-04-22 08:11 | -32.92445 | -68.79479 | 3798 ft | 136 kts | 1° |
| 2026-04-22 08:11 | -32.91488 | -68.79422 | 3767 ft | 141 kts | 0° |
| 2026-04-22 08:11 | -32.90451 | -68.79386 | 3680 ft | 158 kts | 360° |
| 2026-04-22 08:12 | -32.89342 | -68.79370 | 3502 ft | 160 kts | 359° |
| 2026-04-22 08:12 | -32.88250 | -68.79363 | 3206 ft | 150 kts | 359° |
| 2026-04-22 08:12 | -32.87246 | -68.79350 | 2856 ft | 140 kts | 360° |
| 2026-04-22 08:12 | -32.86310 | -68.79330 | 2654 ft | 130 kts | 0° |
| 2026-04-22 08:13 | -32.85433 | -68.79315 | 2508 ft | 124 kts | 359° |
| 2026-04-22 08:13 | -32.84563 | -68.79302 | 2376 ft | 123 kts | 359° |
| 2026-04-22 08:13 | -32.83833 | -68.79313 | 2320 ft | 82 kts | 359° |
| 2026-04-22 08:13 | -32.83562 | -68.79305 | 2321 ft | 23 kts | 3° |
| 2026-04-22 08:14 | -32.83434 | -68.79298 | 2321 ft | 14 kts | 2° |
| 2026-04-22 08:14 | -32.83371 | -68.79295 | 2321 ft | 4 kts | 2° |
| 2026-04-22 08:14 | -32.83364 | -68.79295 | 2321 ft | 0 kts | 2° |